Time;durP1;ratioP1;P1;durP2;ratioP2;P2;SDS_P1;SDS_P2;PMS_P1;PMS_P2;Temp;Humidity;BMP_temperature;BMP_pressure;BME280_temperature;BME280_humidity;BME280_pressure;Samples;Min_cycle;Max_cycle;Signal;HPM_P1;HPM_P2
2021/03/14 00:00:25;;;;;;;59.63;35.07;;;;;;;;;;4345761;33;20274;-56
2021/03/14 00:02:50;;;;;;;57.93;34.53;;;;;;;;;;4340237;33;20253;-55
2021/03/14 00:05:15;;;;;;;61.47;35.70;;;;;;;;;;4342413;33;20293;-55
2021/03/14 00:07:41;;;;;;;71.93;38.93;;;;;;;;;;4355464;32;20238;-55
2021/03/14 00:10:08;;;;;;;74.37;42.20;;;;;;;;;;4339918;33;20730;-54
2021/03/14 00:12:34;;;;;;;86.10;46.63;;;;;;;;;;4352693;33;20264;-54
2021/03/14 00:14:59;;;;;;;71.97;41.27;;;;;;;;;;4354772;32;20265;-54
2021/03/14 00:17:25;;;;;;;64.90;39.10;;;;;;;;;;4328638;33;20571;-55
2021/03/14 00:19:50;;;;;;;68.53;39.27;;;;;;;;;;4341636;33;20273;-57
2021/03/14 00:22:16;;;;;;;67.57;37.03;;;;;;;;;;4341054;33;20226;-55
2021/03/14 00:24:41;;;;;;;69.57;35.80;;;;;;;;;;4341602;33;20222;-55
2021/03/14 00:27:07;;;;;;;70.43;37.93;;;;;;;;;;4356043;33;20291;-54
2021/03/14 00:29:32;;;;;;;55.27;31.23;;;;;;;;;;4356732;33;20199;-54
2021/03/14 00:31:58;;;;;;;49.63;29.07;;;;;;;;;;4342369;32;20387;-55
2021/03/14 00:34:24;;;;;;;45.33;26.27;;;;;;;;;;4340668;33;20223;-54
2021/03/14 00:36:49;;;;;;;56.83;29.53;;;;;;;;;;4327233;33;20266;-54
2021/03/14 00:39:15;;;;;;;49.87;27.90;;;;;;;;;;4343926;33;20652;-54
2021/03/14 00:41:40;;;;;;;52.87;28.27;;;;;;;;;;4348379;32;20214;-54
2021/03/14 00:44:06;;;;;;;72.77;37.33;;;;;;;;;;4340816;33;20317;-55
2021/03/14 00:46:31;;;;;;;76.67;35.53;;;;;;;;;;4326714;33;20672;-55
2021/03/14 00:48:57;;;;;;;66.20;33.60;;;;;;;;;;4327826;33;20230;-55
2021/03/14 00:51:23;;;;;;;67.03;34.70;;;;;;;;;;4343640;33;20348;-55
2021/03/14 00:53:49;;;;;;;62.17;34.33;;;;;;;;;;4343992;32;20305;-55
2021/03/14 00:56:14;;;;;;;68.03;37.80;;;;;;;;;;4329464;33;20227;-54
2021/03/14 00:58:41;;;;;;;68.07;36.20;;;;;;;;;;4343984;33;20227;-55
2021/03/14 01:01:06;;;;;;;70.57;39.10;;;;;;;;;;4343208;32;20715;-55
2021/03/14 01:03:32;;;;;;;71.10;40.67;;;;;;;;;;4346019;32;20222;-54
2021/03/14 01:05:58;;;;;;;68.00;39.47;;;;;;;;;;4345058;32;20337;-55
2021/03/14 01:08:23;;;;;;;72.27;38.20;;;;;;;;;;4344925;32;20250;-55
2021/03/14 01:10:49;;;;;;;69.00;35.77;;;;;;;;;;4355318;32;20318;-55
2021/03/14 01:13:14;;;;;;;73.87;36.90;;;;;;;;;;4365446;32;20318;-56
2021/03/14 01:15:40;;;;;;;76.30;39.47;;;;;;;;;;4358453;32;20222;-56
2021/03/14 01:18:05;;;;;;;76.40;39.53;;;;;;;;;;4345211;32;20231;-56
2021/03/14 01:20:31;;;;;;;72.43;38.40;;;;;;;;;;4357837;32;20308;-56
2021/03/14 01:22:56;;;;;;;72.20;38.60;;;;;;;;;;4357288;32;20675;-56
2021/03/14 01:25:22;;;;;;;58.23;35.20;;;;;;;;;;4357404;32;20540;-56
2021/03/14 01:27:47;;;;;;;67.57;41.87;;;;;;;;;;4357847;32;21028;-56
2021/03/14 01:30:20;;;;;;;67.13;42.57;;;;;;;;;;4357572;32;20297;-56
2021/03/14 01:32:47;;;;;;;84.47;50.37;;;;;;;;;;4355678;32;20355;-56
2021/03/14 01:35:13;;;;;;;81.53;49.00;;;;;;;;;;4357593;32;20305;-56
2021/03/14 01:37:39;;;;;;;82.13;49.63;;;;;;;;;;4358023;32;20313;-56
2021/03/14 01:40:07;;;;;;;83.10;48.33;;;;;;;;;;4357256;32;20608;-56
2021/03/14 01:42:34;;;;;;;88.17;48.93;;;;;;;;;;4357602;32;20686;-55
2021/03/14 01:45:00;;;;;;;90.73;51.50;;;;;;;;;;4357688;32;20229;-57
2021/03/14 01:47:38;;;;;;;95.10;51.70;;;;;;;;;;4357784;32;20219;-56
2021/03/14 01:50:06;;;;;;;88.40;47.07;;;;;;;;;;4357684;32;20624;-56
2021/03/14 01:52:33;;;;;;;86.93;50.10;;;;;;;;;;4357205;32;20292;-55
2021/03/14 01:54:59;;;;;;;83.13;56.47;;;;;;;;;;4355517;32;20298;-55
2021/03/14 01:57:25;;;;;;;82.70;55.83;;;;;;;;;;4357378;32;20226;-55
2021/03/14 01:59:50;;;;;;;99.63;59.27;;;;;;;;;;4356325;32;20756;-54
2021/03/14 02:02:16;;;;;;;86.63;52.60;;;;;;;;;;4357554;32;20218;-55
2021/03/14 02:04:42;;;;;;;78.17;44.70;;;;;;;;;;4357042;32;20219;-54
2021/03/14 02:07:07;;;;;;;73.87;42.20;;;;;;;;;;4355531;32;20254;-54
2021/03/14 02:09:33;;;;;;;66.77;41.70;;;;;;;;;;4345364;32;20865;-55
2021/03/14 02:12:02;;;;;;;80.60;47.27;;;;;;;;;;4357638;32;20373;-54
2021/03/14 02:14:29;;;;;;;80.10;46.33;;;;;;;;;;4356032;32;20305;-56
2021/03/14 02:16:57;;;;;;;75.87;39.47;;;;;;;;;;4349309;32;20366;-56
2021/03/14 02:19:28;;;;;;;75.20;36.80;;;;;;;;;;4344334;32;20375;-56
2021/03/14 02:22:00;;;;;;;86.50;47.67;;;;;;;;;;4347873;32;20222;-55
2021/03/14 02:24:32;;;;;;;93.77;43.57;;;;;;;;;;4343816;32;20317;-55
2021/03/14 02:27:02;;;;;;;78.10;41.40;;;;;;;;;;4343162;32;20238;-55
2021/03/14 02:29:29;;;;;;;73.30;39.43;;;;;;;;;;4353126;32;20308;-55
2021/03/14 02:31:55;;;;;;;56.23;33.30;;;;;;;;;;4357303;32;20222;-55
2021/03/14 02:34:31;;;;;;;60.10;35.67;;;;;;;;;;4356691;32;20289;-56
2021/03/14 02:36:58;;;;;;;60.73;34.37;;;;;;;;;;4355946;32;20685;-55
2021/03/14 02:39:25;;;;;;;67.63;34.83;;;;;;;;;;4330813;33;20258;-55
2021/03/14 02:41:53;;;;;;;62.67;35.53;;;;;;;;;;4342572;32;20222;-55
2021/03/14 02:44:23;;;;;;;65.63;38.77;;;;;;;;;;4341469;33;20782;-56
2021/03/14 02:46:50;;;;;;;61.90;37.90;;;;;;;;;;4333395;32;20234;-55
2021/03/14 02:49:18;;;;;;;72.10;34.87;;;;;;;;;;4345872;32;20676;-56
2021/03/14 02:51:44;;;;;;;59.17;35.50;;;;;;;;;;4357563;32;20631;-59
2021/03/14 02:54:10;;;;;;;60.83;33.87;;;;;;;;;;4356342;32;20210;-56
2021/03/14 02:56:36;;;;;;;79.13;41.07;;;;;;;;;;4356653;32;20370;-55
2021/03/14 02:59:03;;;;;;;49.60;32.53;;;;;;;;;;4352821;32;20222;-54
2021/03/14 03:01:30;;;;;;;65.77;37.07;;;;;;;;;;4355528;32;20466;-56
2021/03/14 03:04:00;;;;;;;68.43;38.60;;;;;;;;;;4356479;32;20735;-55
2021/03/14 03:06:27;;;;;;;93.93;49.07;;;;;;;;;;4348687;32;20293;-56
2021/03/14 03:08:53;;;;;;;82.13;44.07;;;;;;;;;;4356692;32;20206;-55
2021/03/14 03:11:19;;;;;;;69.93;36.37;;;;;;;;;;4360296;32;20370;-55
2021/03/14 03:13:45;;;;;;;57.43;33.33;;;;;;;;;;4372049;32;20275;-55
2021/03/14 03:16:17;;;;;;;43.97;26.00;;;;;;;;;;4359034;32;20290;-54
2021/03/14 03:18:44;;;;;;;51.10;27.53;;;;;;;;;;4356743;32;20230;-54
2021/03/14 03:21:11;;;;;;;40.43;25.77;;;;;;;;;;4357746;32;20662;-54
2021/03/14 03:23:37;;;;;;;42.70;25.63;;;;;;;;;;4356350;32;20256;-53
2021/03/14 03:26:04;;;;;;;38.67;23.10;;;;;;;;;;4357117;32;20311;-55
2021/03/14 03:28:30;;;;;;;34.73;21.17;;;;;;;;;;4356583;32;20230;-54
2021/03/14 03:30:56;;;;;;;37.57;21.20;;;;;;;;;;4356868;32;20639;-54
2021/03/14 03:33:22;;;;;;;32.07;20.07;;;;;;;;;;4356899;32;20644;-54
2021/03/14 03:35:48;;;;;;;40.73;22.70;;;;;;;;;;4349881;32;20517;-54
2021/03/14 03:38:13;;;;;;;40.17;24.07;;;;;;;;;;4371397;32;20222;-53
2021/03/14 03:40:39;;;;;;;45.60;22.93;;;;;;;;;;4360333;32;20322;-54
2021/03/14 03:43:27;;;;;;;44.27;22.80;;;;;;;;;;4356619;32;20265;-55
2021/03/14 03:45:59;;;;;;;42.23;26.00;;;;;;;;;;4342931;32;20636;-55
2021/03/14 03:48:47;;;;;;;50.30;27.63;;;;;;;;;;4356700;32;20526;-55
2021/03/14 03:51:26;;;;;;;57.97;29.67;;;;;;;;;;4357114;32;20230;-56
2021/03/14 03:53:54;;;;;;;69.43;36.70;;;;;;;;;;4356887;32;20298;-56
2021/03/14 03:56:21;;;;;;;64.50;38.07;;;;;;;;;;4356058;32;20211;-56
2021/03/14 03:58:48;;;;;;;61.50;36.37;;;;;;;;;;4342592;33;20250;-55
2021/03/14 04:01:15;;;;;;;66.53;36.33;;;;;;;;;;4356911;33;20324;-56
2021/03/14 04:03:44;;;;;;;71.90;43.30;;;;;;;;;;4355579;32;20262;-56
2021/03/14 04:06:11;;;;;;;66.87;42.57;;;;;;;;;;4356245;32;20285;-55
2021/03/14 04:08:39;;;;;;;63.87;39.00;;;;;;;;;;4356341;32;20367;-56
2021/03/14 04:11:11;;;;;;;70.33;37.80;;;;;;;;;;4355971;33;20211;-57
2021/03/14 04:13:37;;;;;;;61.33;40.33;;;;;;;;;;4356574;33;20268;-57
2021/03/14 04:16:04;;;;;;;66.20;36.87;;;;;;;;;;4356257;32;20347;-57
2021/03/14 04:18:34;;;;;;;63.40;36.67;;;;;;;;;;4342412;33;20362;-57
2021/03/14 04:21:03;;;;;;;63.03;35.93;;;;;;;;;;4355699;32;20218;-55
2021/03/14 04:23:30;;;;;;;56.43;35.83;;;;;;;;;;4344718;32;20301;-55
2021/03/14 04:25:57;;;;;;;62.77;37.00;;;;;;;;;;4355641;32;20248;-56
2021/03/14 04:28:27;;;;;;;76.47;41.07;;;;;;;;;;4358762;32;20511;-55
2021/03/14 04:30:53;;;;;;;70.43;43.10;;;;;;;;;;4345251;32;20288;-55
2021/03/14 04:33:19;;;;;;;70.50;40.90;;;;;;;;;;4359490;32;20301;-56
2021/03/14 04:35:45;;;;;;;65.30;38.10;;;;;;;;;;4359075;32;20301;-55
2021/03/14 04:38:12;;;;;;;73.27;38.77;;;;;;;;;;4359625;32;20218;-56
2021/03/14 04:40:38;;;;;;;68.00;37.03;;;;;;;;;;4357412;32;20269;-57
2021/03/14 04:43:05;;;;;;;69.10;36.10;;;;;;;;;;4359463;32;20645;-56
2021/03/14 04:45:32;;;;;;;65.83;36.20;;;;;;;;;;4358671;32;20335;-57
2021/03/14 04:47:58;;;;;;;65.33;37.67;;;;;;;;;;4355133;32;20308;-56
2021/03/14 04:50:26;;;;;;;55.27;32.73;;;;;;;;;;4350981;32;20761;-55
2021/03/14 04:52:53;;;;;;;52.30;34.70;;;;;;;;;;4357626;32;20272;-55
2021/03/14 04:55:20;;;;;;;63.87;38.37;;;;;;;;;;4357082;32;20289;-56
2021/03/14 04:57:47;;;;;;;76.60;42.77;;;;;;;;;;4369375;32;20776;-56
2021/03/14 05:00:15;;;;;;;95.47;51.10;;;;;;;;;;4355037;32;20275;-56
2021/03/14 05:02:47;;;;;;;90.17;47.53;;;;;;;;;;4358942;32;20230;-56
2021/03/14 05:05:13;;;;;;;58.93;32.73;;;;;;;;;;4350882;32;20532;-56
2021/03/14 05:07:45;;;;;;;54.57;29.53;;;;;;;;;;4358232;32;20346;-55
2021/03/14 05:10:19;;;;;;;60.93;32.50;;;;;;;;;;4344778;32;20601;-56
2021/03/14 05:12:46;;;;;;;60.60;35.53;;;;;;;;;;4368487;32;20664;-55
2021/03/14 05:15:13;;;;;;;55.23;34.67;;;;;;;;;;4358144;32;20203;-56
2021/03/14 05:17:40;;;;;;;56.10;34.70;;;;;;;;;;4358277;32;20320;-55
2021/03/14 05:20:07;;;;;;;54.43;33.30;;;;;;;;;;4359069;32;20233;-57
2021/03/14 05:22:35;;;;;;;59.37;34.57;;;;;;;;;;4358142;32;20536;-57
2021/03/14 05:25:02;;;;;;;62.93;37.27;;;;;;;;;;4344386;32;20238;-57
2021/03/14 05:27:29;;;;;;;76.67;45.93;;;;;;;;;;4358639;32;20230;-57
2021/03/14 05:29:54;;;;;;;87.37;50.20;;;;;;;;;;4358377;32;20395;-58
2021/03/14 05:32:20;;;;;;;98.73;54.97;;;;;;;;;;4357870;32;20294;-57
2021/03/14 05:34:45;;;;;;;105.47;56.07;;;;;;;;;;4358041;32;20222;-56
2021/03/14 05:37:11;;;;;;;103.70;55.77;;;;;;;;;;4372497;32;20474;-56
2021/03/14 05:39:36;;;;;;;83.73;48.30;;;;;;;;;;4368052;32;20206;-57
2021/03/14 05:42:04;;;;;;;79.43;49.30;;;;;;;;;;4358108;32;20336;-56
2021/03/14 05:44:29;;;;;;;80.07;49.60;;;;;;;;;;4357805;32;20710;-56
2021/03/14 05:46:55;;;;;;;82.67;48.73;;;;;;;;;;4358196;32;20263;-56
2021/03/14 05:49:21;;;;;;;71.10;48.80;;;;;;;;;;4351174;32;20655;-56
2021/03/14 05:51:50;;;;;;;89.73;53.60;;;;;;;;;;4357049;32;20226;-57
2021/03/14 05:54:16;;;;;;;102.57;57.33;;;;;;;;;;4356347;32;20640;-57
2021/03/14 05:56:47;;;;;;;136.47;68.47;;;;;;;;;;4358359;32;20237;-56
2021/03/14 05:59:16;;;;;;;112.97;61.67;;;;;;;;;;4358009;32;20214;-57
2021/03/14 06:01:51;;;;;;;87.83;53.20;;;;;;;;;;4358371;32;20585;-57
2021/03/14 06:04:17;;;;;;;80.63;50.53;;;;;;;;;;4356747;32;20214;-57
2021/03/14 06:06:43;;;;;;;89.03;54.03;;;;;;;;;;4343293;32;20261;-58
2021/03/14 06:09:09;;;;;;;80.10;52.13;;;;;;;;;;4343920;32;20347;-59
2021/03/14 06:11:34;;;;;;;82.27;54.60;;;;;;;;;;4363106;32;20332;-58
2021/03/14 06:14:01;;;;;;;86.17;51.17;;;;;;;;;;4358945;32;20218;-58
2021/03/14 06:16:26;;;;;;;63.03;41.53;;;;;;;;;;4358609;32;20292;-58
2021/03/14 06:18:56;;;;;;;64.10;39.80;;;;;;;;;;4358369;32;20203;-57
2021/03/14 06:21:26;;;;;;;58.87;38.97;;;;;;;;;;4357864;32;20292;-57
2021/03/14 06:23:59;;;;;;;61.47;40.37;;;;;;;;;;4357440;32;20233;-58
2021/03/14 06:26:42;;;;;;;68.43;43.97;;;;;;;;;;4355906;32;20214;-57
2021/03/14 06:29:16;;;;;;;70.90;41.73;;;;;;;;;;4356462;32;20194;-58
2021/03/14 06:31:48;;;;;;;63.50;38.37;;;;;;;;;;4357364;32;20552;-58
2021/03/14 06:34:35;;;;;;;55.33;35.63;;;;;;;;;;4356516;32;20556;-57
2021/03/14 06:37:07;;;;;;;64.60;39.97;;;;;;;;;;4371325;32;20225;-58
2021/03/14 06:39:34;;;;;;;80.93;51.10;;;;;;;;;;4367769;32;20238;-58
2021/03/14 06:42:00;;;;;;;94.10;62.37;;;;;;;;;;4357380;32;20714;-57
2021/03/14 06:44:31;;;;;;;105.70;66.30;;;;;;;;;;4356356;32;20218;-57
2021/03/14 06:46:58;;;;;;;100.53;59.90;;;;;;;;;;4356768;32;20240;-56
2021/03/14 06:49:25;;;;;;;77.67;51.40;;;;;;;;;;4356010;32;20344;-56
2021/03/14 06:51:53;;;;;;;70.43;45.83;;;;;;;;;;4355975;32;20253;-56
2021/03/14 06:54:29;;;;;;;71.30;46.33;;;;;;;;;;4355507;32;20320;-56
2021/03/14 06:57:08;;;;;;;60.03;42.77;;;;;;;;;;4356545;32;20252;-59
2021/03/14 06:59:37;;;;;;;54.43;29.03;;;;;;;;;;4357142;32;20616;-58
2021/03/14 07:02:14;;;;;;;55.97;36.70;;;;;;;;;;4356647;32;20242;-57
2021/03/14 07:04:49;;;;;;;46.90;32.37;;;;;;;;;;4355946;32;20289;-55
2021/03/14 07:07:26;;;;;;;59.07;41.27;;;;;;;;;;4356352;32;20268;-55
2021/03/14 07:10:13;;;;;;;67.77;47.33;;;;;;;;;;4355897;32;20213;-55
2021/03/14 07:12:39;;;;;;;61.60;37.43;;;;;;;;;;4355778;32;20400;-55
2021/03/14 07:15:11;;;;;;;53.67;39.87;;;;;;;;;;4356655;32;20359;-55
2021/03/14 07:17:38;;;;;;;39.53;28.13;;;;;;;;;;4357064;32;20226;-54
2021/03/14 07:20:11;;;;;;;32.03;26.10;;;;;;;;;;4342884;32;20256;-54
2021/03/14 07:22:38;;;;;;;34.00;28.17;;;;;;;;;;4350755;32;20290;-54
2021/03/14 07:25:07;;;;;;;41.47;27.97;;;;;;;;;;4347228;32;20226;-55
2021/03/14 07:27:33;;;;;;;42.77;30.30;;;;;;;;;;4356546;32;20534;-55
2021/03/14 07:29:59;;;;;;;40.50;29.17;;;;;;;;;;4355415;32;20286;-56
2021/03/14 07:32:26;;;;;;;42.43;29.50;;;;;;;;;;4349448;32;20309;-55
2021/03/14 07:34:52;;;;;;;37.40;26.03;;;;;;;;;;4349668;32;20288;-56
2021/03/14 07:37:19;;;;;;;35.93;21.37;;;;;;;;;;4334895;32;20226;-55
2021/03/14 07:39:48;;;;;;;29.50;19.27;;;;;;;;;;4349626;32;20313;-55
2021/03/14 07:42:18;;;;;;;32.13;22.00;;;;;;;;;;4335135;32;20304;-55
2021/03/14 07:44:44;;;;;;;36.97;25.00;;;;;;;;;;4345941;32;20589;-56
2021/03/14 07:47:13;;;;;;;40.97;28.37;;;;;;;;;;4355501;32;20245;-56
2021/03/14 07:49:52;;;;;;;47.50;32.90;;;;;;;;;;4344721;32;20290;-56
2021/03/14 07:52:24;;;;;;;49.53;31.47;;;;;;;;;;4356709;32;20210;-57
2021/03/14 07:54:56;;;;;;;46.70;31.00;;;;;;;;;;4356256;32;20686;-57
2021/03/14 07:57:24;;;;;;;44.97;27.30;;;;;;;;;;4341237;32;20246;-57
2021/03/14 07:59:50;;;;;;;38.40;25.40;;;;;;;;;;4352581;33;20297;-58
2021/03/14 08:02:18;;;;;;;40.83;24.23;;;;;;;;;;4355466;32;20308;-57
2021/03/14 08:04:48;;;;;;;32.77;22.47;;;;;;;;;;4356128;32;20297;-58
2021/03/14 08:07:14;;;;;;;34.47;24.67;;;;;;;;;;4355206;32;20300;-56
2021/03/14 08:09:46;;;;;;;26.43;16.50;;;;;;;;;;4351794;33;20362;-57
2021/03/14 08:12:22;;;;;;;21.97;14.40;;;;;;;;;;4349611;33;20248;-56
2021/03/14 08:14:56;;;;;;;20.50;14.20;;;;;;;;;;4356140;33;20289;-57
2021/03/14 08:17:24;;;;;;;22.50;15.10;;;;;;;;;;4356009;33;20245;-57
2021/03/14 08:19:51;;;;;;;27.33;16.37;;;;;;;;;;4355941;32;20222;-58
2021/03/14 08:22:38;;;;;;;24.53;15.90;;;;;;;;;;4351769;33;20676;-57
2021/03/14 08:25:16;;;;;;;21.87;14.83;;;;;;;;;;4345914;33;20288;-57
2021/03/14 08:27:42;;;;;;;24.60;16.70;;;;;;;;;;4355337;33;20253;-57
2021/03/14 08:30:08;;;;;;;26.53;16.30;;;;;;;;;;4356850;32;20711;-58
2021/03/14 08:32:34;;;;;;;29.23;19.10;;;;;;;;;;4342950;33;20258;-57
2021/03/14 08:34:59;;;;;;;28.57;17.50;;;;;;;;;;4352476;32;20797;-55
2021/03/14 08:37:26;;;;;;;33.40;21.77;;;;;;;;;;4342177;33;20415;-56
2021/03/14 08:40:04;;;;;;;26.50;17.67;;;;;;;;;;4339936;33;20309;-56
2021/03/14 08:42:48;;;;;;;25.13;17.67;;;;;;;;;;4355547;33;20257;-56
2021/03/14 08:45:26;;;;;;;37.17;22.73;;;;;;;;;;4355536;32;21220;-56
2021/03/14 08:47:52;;;;;;;37.07;23.53;;;;;;;;;;4352013;33;20250;-56
2021/03/14 08:50:18;;;;;;;61.77;35.10;;;;;;;;;;4334125;33;20804;-56
2021/03/14 08:52:44;;;;;;;61.10;33.13;;;;;;;;;;4356124;32;20230;-56
2021/03/14 08:55:10;;;;;;;29.83;19.83;;;;;;;;;;4341532;33;20711;-56
2021/03/14 08:57:36;;;;;;;31.93;21.67;;;;;;;;;;4352935;33;20214;-56
2021/03/14 09:00:05;;;;;;;43.57;27.07;;;;;;;;;;4350709;33;20277;-56
2021/03/14 09:02:32;;;;;;;26.93;18.97;;;;;;;;;;4355932;32;20262;-55
2021/03/14 09:05:10;;;;;;;31.33;17.20;;;;;;;;;;4355059;33;20526;-56
2021/03/14 09:07:36;;;;;;;23.20;16.43;;;;;;;;;;4355034;32;20233;-55
2021/03/14 09:10:10;;;;;;;29.33;18.17;;;;;;;;;;4341295;32;20748;-57
2021/03/14 09:12:35;;;;;;;22.77;15.17;;;;;;;;;;4356844;32;20234;-56
2021/03/14 09:15:09;;;;;;;22.10;15.83;;;;;;;;;;4337590;32;20334;-55
2021/03/14 09:17:40;;;;;;;29.13;23.13;;;;;;;;;;4330531;33;20333;-60
2021/03/14 09:20:08;;;;;;;23.70;18.13;;;;;;;;;;4329596;33;20812;-54
2021/03/14 09:22:36;;;;;;;18.77;13.73;;;;;;;;;;4343088;33;20243;-55
2021/03/14 09:25:09;;;;;;;28.57;14.97;;;;;;;;;;4347956;32;20250;-56
2021/03/14 09:27:44;;;;;;;24.23;15.33;;;;;;;;;;4357604;32;20241;-58
2021/03/14 09:30:12;;;;;;;18.43;12.37;;;;;;;;;;4356881;32;20232;-57
2021/03/14 09:32:42;;;;;;;15.97;10.07;;;;;;;;;;4349301;32;20314;-57
2021/03/14 09:35:11;;;;;;;14.03;11.03;;;;;;;;;;4344466;32;20215;-57
2021/03/14 09:37:37;;;;;;;23.83;18.03;;;;;;;;;;4344605;32;20234;-57
2021/03/14 09:40:16;;;;;;;15.10;11.10;;;;;;;;;;4354833;32;20255;-58
2021/03/14 09:42:43;;;;;;;16.33;9.53;;;;;;;;;;4347090;32;20264;-58
2021/03/14 09:45:21;;;;;;;20.87;10.80;;;;;;;;;;4328589;33;20293;-56
2021/03/14 09:48:03;;;;;;;15.57;10.80;;;;;;;;;;4340887;33;20301;-56
2021/03/14 09:50:35;;;;;;;16.40;10.60;;;;;;;;;;4349752;32;20439;-57
2021/03/14 09:53:02;;;;;;;20.03;11.73;;;;;;;;;;4349754;32;20531;-57
2021/03/14 09:55:31;;;;;;;22.30;10.90;;;;;;;;;;4350400;32;20226;-56
2021/03/14 09:58:00;;;;;;;15.33;10.53;;;;;;;;;;4344127;32;20238;-57
2021/03/14 10:00:30;;;;;;;17.33;9.50;;;;;;;;;;4340742;32;20348;-57
2021/03/14 10:02:58;;;;;;;15.00;10.27;;;;;;;;;;4358077;32;20230;-57
2021/03/14 10:05:24;;;;;;;12.20;9.43;;;;;;;;;;4339093;32;20607;-57
2021/03/14 10:07:51;;;;;;;33.83;19.20;;;;;;;;;;4372524;32;20230;-57
2021/03/14 10:10:17;;;;;;;19.53;12.23;;;;;;;;;;4364341;32;20214;-57
2021/03/14 10:12:43;;;;;;;20.17;14.83;;;;;;;;;;4369889;32;20673;-57
2021/03/14 10:15:14;;;;;;;19.33;12.03;;;;;;;;;;4366055;32;20281;-57
2021/03/14 10:17:40;;;;;;;22.27;11.57;;;;;;;;;;4357494;32;20257;-57
2021/03/14 10:20:06;;;;;;;17.43;10.93;;;;;;;;;;4357000;32;20286;-56
2021/03/14 10:22:32;;;;;;;14.30;10.77;;;;;;;;;;4354287;32;20230;-59
2021/03/14 10:24:58;;;;;;;13.77;11.10;;;;;;;;;;4356096;32;20675;-58
2021/03/14 10:27:25;;;;;;;35.73;21.70;;;;;;;;;;4359188;32;20335;-57
2021/03/14 10:30:02;;;;;;;20.27;12.67;;;;;;;;;;4363339;32;20621;-59
2021/03/14 10:32:29;;;;;;;25.23;14.17;;;;;;;;;;4362883;32;20356;-58
2021/03/14 10:35:03;;;;;;;22.87;14.87;;;;;;;;;;4357208;32;20223;-58
2021/03/14 10:37:35;;;;;;;25.10;14.23;;;;;;;;;;4356534;32;20746;-58
2021/03/14 10:40:06;;;;;;;15.57;10.43;;;;;;;;;;4355684;32;20202;-58
2021/03/14 10:42:35;;;;;;;16.33;9.57;;;;;;;;;;4357457;32;20412;-56
2021/03/14 10:45:06;;;;;;;16.03;9.43;;;;;;;;;;4358277;32;20280;-56
2021/03/14 10:47:32;;;;;;;17.87;9.37;;;;;;;;;;4356724;32;20262;-56
2021/03/14 10:50:18;;;;;;;14.27;9.27;;;;;;;;;;4356284;32;20761;-60
2021/03/14 10:52:44;;;;;;;16.00;9.47;;;;;;;;;;4349417;32;20680;-56
2021/03/14 10:55:30;;;;;;;20.07;10.13;;;;;;;;;;4356363;32;20300;-57
2021/03/14 10:58:11;;;;;;;19.20;8.80;;;;;;;;;;4342099;33;20289;-56
2021/03/14 11:00:42;;;;;;;7.13;5.07;;;;;;;;;;4354157;32;20510;-56
2021/03/14 11:03:12;;;;;;;12.83;5.47;;;;;;;;;;4355586;32;20686;-57
2021/03/14 11:05:40;;;;;;;8.87;5.87;;;;;;;;;;4355665;32;20249;-57
2021/03/14 11:08:06;;;;;;;12.73;6.80;;;;;;;;;;4353469;32;20225;-57
2021/03/14 11:10:32;;;;;;;9.53;4.97;;;;;;;;;;4347866;32;20720;-58
2021/03/14 11:12:58;;;;;;;11.87;3.57;;;;;;;;;;4335470;32;20278;-55
2021/03/14 11:15:23;;;;;;;7.43;4.47;;;;;;;;;;4347296;32;20992;-57
2021/03/14 11:17:50;;;;;;;6.43;4.33;;;;;;;;;;4345996;32;20252;-57
2021/03/14 11:20:17;;;;;;;6.97;2.70;;;;;;;;;;4355362;32;20228;-58
2021/03/14 11:22:42;;;;;;;7.80;4.63;;;;;;;;;;4346822;32;20249;-58
2021/03/14 11:25:10;;;;;;;11.47;4.37;;;;;;;;;;4333530;32;20270;-59
2021/03/14 11:27:36;;;;;;;11.60;5.53;;;;;;;;;;4342371;32;20244;-59
2021/03/14 11:30:01;;;;;;;7.10;3.97;;;;;;;;;;4356355;32;20277;-59
2021/03/14 11:32:27;;;;;;;8.40;5.77;;;;;;;;;;4341080;32;20222;-59
2021/03/14 11:34:52;;;;;;;7.73;4.23;;;;;;;;;;4345694;32;20265;-58
2021/03/14 11:37:18;;;;;;;4.17;3.17;;;;;;;;;;4345719;32;20207;-58
2021/03/14 11:39:43;;;;;;;9.03;4.13;;;;;;;;;;4349621;32;20285;-58
2021/03/14 11:42:10;;;;;;;7.53;2.97;;;;;;;;;;4354118;32;20435;-59
2021/03/14 11:44:36;;;;;;;4.20;2.70;;;;;;;;;;4343208;32;20811;-58
2021/03/14 11:47:02;;;;;;;7.90;4.40;;;;;;;;;;4355385;32;20367;-59
2021/03/14 11:49:28;;;;;;;14.98;7.05;;;;;;;;;;4343968;32;20659;-59
2021/03/14 11:51:53;;;;;;;4.97;4.43;;;;;;;;;;4347573;32;20258;-59
2021/03/14 11:54:19;;;;;;;10.18;3.87;;;;;;;;;;4342392;32;20366;-62
2021/03/14 11:56:49;;;;;;;16.73;7.37;;;;;;;;;;4337315;33;20288;-69
2021/03/14 11:59:15;;;;;;;7.87;5.57;;;;;;;;;;4352244;32;20309;-59
2021/03/14 12:01:40;;;;;;;18.50;11.95;;;;;;;;;;4327669;33;20324;-59
2021/03/14 12:04:06;;;;;;;7.43;4.70;;;;;;;;;;4341653;33;20313;-57
2021/03/14 12:06:32;;;;;;;6.62;4.18;;;;;;;;;;4350417;33;20214;-57
2021/03/14 12:08:58;;;;;;;6.68;3.83;;;;;;;;;;4356508;33;20281;-58
2021/03/14 12:11:24;;;;;;;5.18;3.25;;;;;;;;;;4360404;32;20289;-57
2021/03/14 12:13:50;;;;;;;10.23;4.45;;;;;;;;;;4371206;32;20214;-53
2021/03/14 12:16:15;;;;;;;5.57;2.75;;;;;;;;;;4355905;32;20210;-53
2021/03/14 12:18:41;;;;;;;9.25;4.62;;;;;;;;;;4354464;32;20242;-53
2021/03/14 12:21:08;;;;;;;7.57;3.08;;;;;;;;;;4356457;33;20373;-53
2021/03/14 12:23:36;;;;;;;3.87;3.00;;;;;;;;;;4356576;33;20242;-52
2021/03/14 12:26:03;;;;;;;6.10;2.60;;;;;;;;;;4356193;33;20210;-53
2021/03/14 12:28:29;;;;;;;4.70;2.75;;;;;;;;;;4343516;33;20331;-52
2021/03/14 12:30:54;;;;;;;10.25;2.70;;;;;;;;;;4356570;33;20282;-53
2021/03/14 12:33:20;;;;;;;6.05;2.30;;;;;;;;;;4356623;32;20620;-52
2021/03/14 12:35:46;;;;;;;6.97;3.03;;;;;;;;;;4341663;33;20233;-53
2021/03/14 12:38:11;;;;;;;3.62;2.50;;;;;;;;;;4356630;32;20228;-53
2021/03/14 12:40:37;;;;;;;4.00;2.03;;;;;;;;;;4356694;32;20294;-53
2021/03/14 12:43:03;;;;;;;7.82;2.55;;;;;;;;;;4343241;33;20277;-53
2021/03/14 12:45:28;;;;;;;14.75;3.65;;;;;;;;;;4356995;32;20620;-53
2021/03/14 12:47:54;;;;;;;6.50;2.85;;;;;;;;;;4355428;32;20280;-54
2021/03/14 12:50:20;;;;;;;5.05;2.53;;;;;;;;;;4358584;32;20278;-54
2021/03/14 12:52:46;;;;;;;5.37;2.95;;;;;;;;;;4358936;32;20352;-55
2021/03/14 12:55:12;;;;;;;4.87;3.25;;;;;;;;;;4359408;32;20359;-56
2021/03/14 12:57:39;;;;;;;6.75;2.65;;;;;;;;;;4358597;32;20349;-55
2021/03/14 13:00:09;;;;;;;9.07;2.22;;;;;;;;;;4359486;32;20223;-55
2021/03/14 13:02:36;;;;;;;4.07;1.92;;;;;;;;;;4359416;32;20269;-54
2021/03/14 13:05:04;;;;;;;4.22;2.28;;;;;;;;;;4350507;32;20666;-55
2021/03/14 13:07:29;;;;;;;3.70;1.70;;;;;;;;;;4359825;32;20663;-54
2021/03/14 13:09:55;;;;;;;10.27;3.50;;;;;;;;;;4355637;32;20301;-55
2021/03/14 13:12:20;;;;;;;5.37;3.08;;;;;;;;;;4359282;32;20608;-53
2021/03/14 13:14:46;;;;;;;9.80;3.83;;;;;;;;;;4358691;32;20536;-52
2021/03/14 13:17:11;;;;;;;5.07;2.55;;;;;;;;;;4359121;32;20214;-54
2021/03/14 13:19:37;;;;;;;4.07;2.12;;;;;;;;;;4358689;32;20231;-53
2021/03/14 13:22:02;;;;;;;2.53;1.83;;;;;;;;;;4358872;32;20322;-53
2021/03/14 13:24:28;;;;;;;4.15;2.03;;;;;;;;;;4357142;32;20385;-53
2021/03/14 13:26:53;;;;;;;11.65;8.00;;;;;;;;;;4356737;32;20230;-53
2021/03/14 13:29:19;;;;;;;8.95;5.72;;;;;;;;;;4357434;32;20309;-52
2021/03/14 13:31:44;;;;;;;5.78;2.58;;;;;;;;;;4358078;32;20265;-52
2021/03/14 13:34:10;;;;;;;3.95;1.58;;;;;;;;;;4344079;32;20256;-53
2021/03/14 13:36:35;;;;;;;7.00;2.75;;;;;;;;;;4342351;32;20639;-52
2021/03/14 13:39:01;;;;;;;18.30;11.55;;;;;;;;;;4357601;32;20202;-53
2021/03/14 13:41:26;;;;;;;8.48;3.95;;;;;;;;;;4358379;32;20310;-53
2021/03/14 13:43:52;;;;;;;9.68;3.22;;;;;;;;;;4357090;32;20670;-52
2021/03/14 13:46:17;;;;;;;9.90;4.75;;;;;;;;;;4357256;32;20374;-52
2021/03/14 13:48:44;;;;;;;13.27;3.50;;;;;;;;;;4343201;32;20393;-51
2021/03/14 13:51:14;;;;;;;7.53;3.12;;;;;;;;;;4357150;32;20636;-52
2021/03/14 13:53:40;;;;;;;4.60;2.78;;;;;;;;;;4358057;32;20229;-52
2021/03/14 13:56:06;;;;;;;3.62;2.53;;;;;;;;;;4344248;32;20639;-53
2021/03/14 13:58:33;;;;;;;4.70;3.00;;;;;;;;;;4344555;32;20235;-52
2021/03/14 14:01:00;;;;;;;8.85;2.75;;;;;;;;;;4349958;32;20310;-52
2021/03/14 14:03:26;;;;;;;202.48;132.52;;;;;;;;;;4356777;32;20225;-51
2021/03/14 14:05:52;;;;;;;97.28;68.00;;;;;;;;;;4356456;32;20261;-51
2021/03/14 14:08:18;;;;;;;9.20;6.55;;;;;;;;;;4357133;32;20246;-51
2021/03/14 14:10:43;;;;;;;6.80;5.55;;;;;;;;;;4357899;32;20261;-54
2021/03/14 14:13:09;;;;;;;6.32;5.68;;;;;;;;;;4372315;32;20281;-53
2021/03/14 14:15:36;;;;;;;7.70;4.55;;;;;;;;;;4348896;32;20313;-52
2021/03/14 14:18:05;;;;;;;7.72;3.80;;;;;;;;;;4356663;32;20249;-50
2021/03/14 14:20:31;;;;;;;22.98;16.12;;;;;;;;;;4343055;32;20447;-53
2021/03/14 14:22:58;;;;;;;15.18;13.20;;;;;;;;;;4357356;32;20214;-52
2021/03/14 14:25:24;;;;;;;6.97;3.33;;;;;;;;;;4330933;32;20218;-53